createdAt,value
2019-05-25T00:01:21.581Z,13.70
2019-05-25T00:03:52.704Z,14.87
2019-05-25T00:06:22.837Z,13.20
2019-05-25T00:08:52.996Z,14.78
2019-05-25T00:11:23.111Z,14.30
2019-05-25T00:13:53.281Z,12.10
2019-05-25T00:16:23.392Z,14.10
2019-05-25T00:18:53.581Z,13.00
2019-05-25T00:21:23.735Z,10.78
2019-05-25T00:23:54.270Z,13.80
2019-05-25T00:26:24.514Z,11.00
2019-05-25T00:28:54.702Z,11.73
2019-05-25T00:31:24.844Z,11.53
2019-05-25T00:33:55.019Z,11.53
2019-05-25T00:36:25.302Z,12.23
2019-05-25T00:38:56.481Z,12.00
2019-05-25T00:41:26.637Z,11.28
2019-05-25T00:43:56.745Z,10.63
2019-05-25T00:46:26.896Z,12.78
2019-05-25T00:48:59.141Z,11.88
2019-05-25T00:51:29.259Z,10.03
2019-05-25T00:53:59.402Z,9.38
2019-05-25T00:56:29.517Z,9.45
2019-05-25T00:58:59.638Z,9.08
2019-05-25T01:01:29.751Z,8.28
2019-05-25T01:04:01.645Z,9.43
2019-05-25T01:06:32.066Z,9.88
2019-05-25T01:09:02.231Z,10.35
2019-05-25T01:11:33.452Z,11.75
2019-05-25T01:14:03.577Z,10.72
2019-05-25T01:16:33.735Z,14.38
2019-05-25T01:19:03.914Z,10.70
2019-05-25T01:21:34.606Z,8.60
2019-05-25T01:24:04.894Z,9.88
2019-05-25T01:26:35.025Z,8.35
2019-05-25T01:29:05.177Z,10.98
2019-05-25T01:31:35.285Z,8.30
2019-05-25T01:34:05.575Z,9.53
2019-05-25T01:36:35.678Z,9.18
2019-05-25T01:39:07.393Z,9.50
2019-05-25T01:41:37.517Z,11.15
2019-05-25T01:44:07.651Z,11.65
2019-05-25T01:46:37.805Z,8.48
2019-05-25T01:49:07.958Z,7.85
2019-05-25T01:51:38.236Z,8.38
2019-05-25T01:54:08.463Z,11.55
2019-05-25T01:56:38.586Z,7.10
2019-05-25T01:59:08.743Z,8.03
2019-05-25T02:01:38.865Z,7.62
2019-05-25T02:04:09.022Z,8.15
2019-05-25T02:06:39.177Z,11.20
2019-05-25T02:09:09.313Z,8.18
2019-05-25T02:11:39.568Z,10.03
2019-05-25T02:14:09.731Z,11.38
2019-05-25T02:16:39.874Z,10.03
2019-05-25T02:19:11.014Z,9.00
2019-05-25T02:21:41.157Z,8.35
2019-05-25T02:24:11.275Z,10.13
2019-05-25T02:26:42.384Z,7.65
2019-05-25T02:29:12.500Z,9.03
2019-05-25T02:31:42.654Z,7.08
2019-05-25T02:34:12.905Z,8.15
2019-05-25T02:36:43.027Z,9.78
2019-05-25T02:39:11.778Z,9.15
2019-05-25T02:41:41.881Z,8.45
2019-05-25T02:44:12.025Z,8.93
2019-05-25T02:46:42.213Z,9.55
2019-05-25T02:49:12.351Z,7.70
2019-05-25T02:51:42.481Z,9.30
2019-05-25T02:54:12.619Z,9.20
2019-05-25T02:56:43.469Z,21.33
2019-05-25T02:59:13.693Z,20.20
2019-05-25T03:01:43.816Z,22.50
2019-05-25T03:04:13.934Z,14.87
2019-05-25T03:06:44.134Z,16.93
2019-05-25T03:09:14.288Z,15.65
2019-05-25T03:11:44.481Z,13.98
2019-05-25T03:14:14.624Z,12.98
2019-05-25T03:16:44.777Z,12.80
2019-05-25T03:19:14.889Z,13.38
2019-05-25T03:21:45.110Z,12.45
2019-05-25T03:24:15.227Z,12.25
2019-05-25T03:26:45.391Z,11.78
2019-05-25T03:29:15.519Z,13.93
2019-05-25T03:31:45.678Z,12.07
2019-05-25T03:34:15.841Z,12.33
2019-05-25T03:36:45.999Z,11.08
2019-05-25T03:39:16.109Z,10.35
2019-05-25T03:41:46.267Z,11.43
2019-05-25T03:44:16.381Z,10.65
2019-05-25T03:46:46.527Z,11.95
2019-05-25T03:49:16.629Z,11.88
2019-05-25T03:51:46.794Z,10.13
2019-05-25T03:54:16.951Z,11.65
2019-05-25T03:56:47.118Z,12.05
2019-05-25T03:59:17.269Z,11.22
2019-05-25T04:01:47.398Z,10.20
2019-05-25T04:04:17.547Z,11.70
2019-05-25T04:06:47.676Z,10.35
2019-05-25T04:09:17.835Z,9.60
2019-05-25T04:11:48.146Z,10.43
2019-05-25T04:14:18.522Z,14.50
2019-05-25T04:16:49.556Z,10.32
2019-05-25T04:19:19.698Z,9.15
2019-05-25T04:21:49.941Z,9.78
2019-05-25T04:24:20.072Z,10.70
2019-05-25T04:26:50.222Z,8.73
2019-05-25T04:29:20.372Z,7.78
2019-05-25T04:31:50.592Z,5.65
2019-05-25T04:34:23.141Z,6.80
2019-05-25T04:36:53.303Z,7.60
2019-05-25T04:39:23.428Z,6.35
2019-05-25T04:41:53.572Z,7.37
2019-05-25T04:44:23.686Z,6.90
2019-05-25T04:46:53.843Z,6.62
2019-05-25T04:49:23.956Z,6.67
2019-05-25T04:51:54.535Z,8.30
2019-05-25T04:54:24.717Z,7.47
2019-05-25T04:56:54.834Z,9.13
2019-05-25T04:59:25.054Z,7.80
2019-05-25T05:01:55.165Z,6.65
2019-05-25T05:04:25.309Z,8.75
2019-05-25T05:06:55.423Z,7.42
2019-05-25T05:09:25.585Z,6.58
2019-05-25T05:11:55.742Z,8.78
2019-05-25T05:14:25.850Z,6.92
2019-05-25T05:16:55.990Z,9.80
2019-05-25T05:19:26.104Z,10.20
2019-05-25T05:21:56.249Z,10.00
2019-05-25T05:24:26.400Z,8.05
2019-05-25T05:26:56.646Z,10.95
2019-05-25T05:29:26.849Z,12.28
2019-05-25T05:31:58.162Z,8.40
2019-05-25T05:34:28.317Z,8.23
2019-05-25T05:36:58.436Z,7.92
2019-05-25T05:39:29.358Z,10.38
2019-05-25T05:41:59.477Z,13.13
2019-05-25T05:44:29.714Z,14.13
2019-05-25T05:47:00.072Z,12.80
2019-05-25T05:49:30.252Z,12.55
2019-05-25T05:52:02.991Z,14.60
2019-05-25T05:54:33.315Z,14.50
2019-05-25T05:57:12.518Z,17.32
2019-05-25T05:59:35.346Z,19.15
2019-05-25T06:02:05.507Z,18.82
2019-05-25T06:04:35.615Z,18.37
2019-05-25T06:07:05.766Z,20.60
2019-05-25T06:09:35.956Z,18.15
2019-05-25T06:12:06.150Z,17.20
2019-05-25T06:14:36.325Z,18.15
2019-05-25T06:17:06.479Z,18.15
2019-05-25T06:19:36.665Z,16.77
2019-05-25T06:22:06.851Z,16.55
2019-05-25T06:24:36.996Z,19.60
2019-05-25T06:27:07.117Z,16.87
2019-05-25T06:29:37.244Z,16.67
2019-05-25T06:32:08.055Z,17.50
2019-05-25T06:34:38.430Z,17.48
2019-05-25T06:37:08.548Z,15.03
2019-05-25T06:39:38.798Z,17.12
2019-05-25T06:42:09.004Z,14.85
2019-05-25T06:44:40.091Z,16.35
2019-05-25T06:47:10.858Z,15.25
2019-05-25T06:49:40.976Z,14.93
2019-05-25T06:52:11.252Z,18.37
2019-05-25T06:54:41.404Z,14.43
2019-05-25T06:57:11.542Z,14.18
2019-05-25T06:59:41.691Z,15.90
2019-05-25T07:02:11.819Z,14.93
2019-05-25T07:04:41.999Z,13.58
2019-05-25T07:07:12.119Z,13.62
2019-05-25T07:09:42.237Z,14.50
2019-05-25T07:12:12.444Z,15.00
2019-05-25T07:14:43.330Z,15.80
2019-05-25T07:17:14.054Z,14.25
2019-05-25T07:19:44.212Z,14.38
2019-05-25T07:22:14.515Z,14.45
2019-05-25T07:24:44.644Z,13.28
2019-05-25T07:27:15.258Z,14.28
2019-05-25T07:29:45.376Z,12.50
2019-05-25T07:32:15.793Z,15.15
2019-05-25T07:34:45.918Z,13.10
2019-05-25T07:37:16.065Z,12.50
2019-05-25T07:39:46.257Z,14.38
2019-05-25T07:42:19.903Z,13.00
2019-05-25T07:44:48.396Z,12.95
2019-05-25T07:47:18.526Z,12.98
2019-05-25T07:49:48.780Z,13.32
2019-05-25T07:52:18.910Z,12.33
2019-05-25T07:54:49.090Z,13.78
2019-05-25T07:57:19.717Z,11.88
2019-05-25T07:59:50.148Z,13.00
2019-05-25T08:02:20.258Z,11.97
2019-05-25T08:04:51.118Z,11.85
2019-05-25T08:07:21.449Z,11.97
2019-05-25T08:09:51.590Z,12.05
2019-05-25T08:12:21.745Z,12.65
2019-05-25T08:14:51.865Z,11.78
2019-05-25T08:17:21.980Z,12.25
2019-05-25T08:19:55.235Z,11.48
2019-05-25T08:22:25.342Z,10.88
2019-05-25T08:24:55.471Z,10.70
2019-05-25T08:27:25.578Z,10.70
2019-05-25T08:29:55.708Z,12.15
2019-05-25T08:32:25.936Z,11.80
2019-05-25T08:34:56.122Z,11.38
2019-05-25T08:37:26.239Z,11.08
2019-05-25T08:39:56.391Z,11.22
2019-05-25T08:42:26.817Z,10.93
2019-05-25T08:44:56.928Z,11.78
2019-05-25T08:47:28.252Z,10.30
2019-05-25T08:49:58.718Z,11.25
2019-05-25T08:52:28.831Z,9.93
2019-05-25T08:54:58.995Z,10.05
2019-05-25T08:57:29.230Z,9.50
2019-05-25T08:59:59.404Z,10.82
2019-05-25T09:02:31.508Z,11.00
2019-05-25T09:05:02.379Z,9.23
2019-05-25T09:07:32.544Z,10.15
2019-05-25T09:10:05.151Z,9.73
2019-05-25T09:12:35.442Z,10.63
2019-05-25T09:15:06.143Z,9.45
2019-05-25T09:17:36.514Z,9.03
2019-05-25T09:20:06.909Z,8.53
2019-05-25T09:22:38.103Z,10.50
2019-05-25T09:25:08.822Z,8.90
2019-05-25T09:27:39.282Z,8.73
2019-05-25T09:30:09.432Z,9.20
2019-05-25T09:32:39.981Z,9.60
2019-05-25T09:35:14.145Z,8.70
2019-05-25T09:37:42.744Z,8.75
2019-05-25T09:40:11.313Z,9.33
2019-05-25T09:42:41.866Z,9.38
2019-05-25T09:45:14.163Z,8.65
2019-05-25T09:47:44.167Z,9.15
2019-05-25T09:50:14.361Z,8.90
2019-05-25T09:52:44.511Z,8.30
2019-05-25T09:55:14.653Z,8.75
2019-05-25T09:57:44.838Z,8.58
2019-05-25T10:00:15.167Z,7.80
2019-05-25T10:02:45.728Z,8.13
2019-05-25T10:05:16.854Z,9.03
2019-05-25T10:07:47.018Z,8.75
2019-05-25T10:10:17.150Z,8.23
2019-05-25T10:12:47.289Z,8.10
2019-05-25T10:15:17.467Z,7.87
2019-05-25T10:17:47.577Z,7.40
2019-05-25T10:20:17.885Z,7.50
2019-05-25T10:22:48.073Z,8.30
2019-05-25T10:25:18.226Z,8.38
2019-05-25T10:27:48.374Z,7.22
2019-05-25T10:30:18.559Z,7.90
2019-05-25T10:32:48.734Z,9.40
2019-05-25T10:35:18.922Z,7.70
2019-05-25T10:37:49.253Z,7.60
2019-05-25T10:40:19.925Z,8.53
2019-05-25T10:42:50.114Z,7.83
2019-05-25T10:45:20.237Z,8.30
2019-05-25T10:47:50.450Z,7.83
2019-05-25T10:50:21.697Z,7.78
2019-05-25T10:52:51.823Z,7.90
2019-05-25T10:55:21.965Z,8.03
2019-05-25T10:57:52.176Z,7.75
2019-05-25T11:00:22.318Z,7.85
2019-05-25T11:02:52.505Z,7.58
2019-05-25T11:05:22.657Z,7.80
2019-05-25T11:07:52.761Z,7.67
2019-05-25T11:10:22.909Z,6.75
2019-05-25T11:12:53.154Z,7.85
2019-05-25T11:15:23.283Z,7.25
2019-05-25T11:17:52.040Z,6.87
2019-05-25T11:20:22.451Z,6.87
2019-05-25T11:22:52.556Z,7.25
2019-05-25T11:25:22.713Z,7.12
2019-05-25T11:27:52.891Z,8.05
2019-05-25T11:30:23.687Z,6.83
2019-05-25T11:32:53.869Z,6.75
2019-05-25T11:35:24.019Z,6.87
2019-05-25T11:37:54.200Z,6.53
2019-05-25T11:40:24.354Z,6.72
2019-05-25T11:42:54.465Z,6.62
2019-05-25T11:45:24.617Z,6.47
2019-05-25T11:47:54.728Z,7.17
2019-05-25T11:50:25.038Z,7.58
2019-05-25T11:52:55.184Z,7.47
2019-05-25T11:55:25.342Z,6.95
2019-05-25T11:57:55.448Z,6.53
2019-05-25T12:00:26.181Z,8.45
2019-05-25T12:02:56.316Z,6.30
2019-05-25T12:05:26.545Z,7.20
2019-05-25T12:07:56.661Z,5.95
2019-05-25T12:10:27.312Z,6.97
2019-05-25T12:12:57.442Z,5.80
2019-05-25T12:15:27.572Z,6.65
2019-05-25T12:17:57.761Z,6.20
2019-05-25T12:20:27.902Z,6.58
2019-05-25T12:22:58.025Z,6.30
2019-05-25T12:25:28.519Z,6.47
2019-05-25T12:27:58.631Z,6.35
2019-05-25T12:30:39.853Z,6.97
2019-05-25T12:32:59.077Z,6.25
2019-05-25T12:35:30.381Z,6.58
2019-05-25T12:38:00.481Z,6.65
2019-05-25T12:40:30.762Z,6.30
2019-05-25T12:42:59.997Z,6.65
2019-05-25T12:45:30.288Z,6.55
2019-05-25T12:48:00.397Z,6.03
2019-05-25T12:50:30.931Z,7.40
2019-05-25T12:53:01.042Z,6.17
2019-05-25T12:55:31.222Z,6.10
2019-05-25T12:58:04.300Z,6.03
2019-05-25T13:00:34.418Z,6.75
2019-05-25T13:03:04.642Z,6.87
2019-05-25T13:05:34.950Z,5.87
2019-05-25T13:08:06.103Z,6.90
2019-05-25T13:10:36.205Z,6.97
2019-05-25T13:13:06.441Z,6.87
2019-05-25T13:15:36.689Z,6.05
2019-05-25T13:18:06.796Z,6.65
2019-05-25T13:20:37.105Z,6.00
2019-05-25T13:23:07.564Z,7.35
2019-05-25T13:25:37.673Z,6.20
2019-05-25T13:28:07.819Z,6.17
2019-05-25T13:30:38.016Z,5.97
2019-05-25T13:33:10.866Z,7.03
2019-05-25T13:35:41.029Z,6.37
2019-05-25T13:38:11.298Z,6.45
2019-05-25T13:40:41.432Z,6.60
2019-05-25T13:43:11.735Z,6.45
2019-05-25T13:45:46.024Z,8.70
2019-05-25T13:48:14.817Z,6.03
2019-05-25T13:50:45.285Z,6.47
2019-05-25T13:53:15.511Z,7.80
2019-05-25T13:55:45.617Z,8.68
2019-05-25T13:58:15.802Z,8.90
2019-05-25T14:00:46.022Z,6.42
2019-05-25T14:03:16.201Z,8.00
2019-05-25T14:05:46.360Z,6.75
2019-05-25T14:08:18.088Z,5.83
2019-05-25T14:10:48.319Z,7.75
2019-05-25T14:13:18.457Z,5.90
2019-05-25T14:15:48.672Z,7.90
2019-05-25T14:18:18.826Z,9.68
2019-05-25T14:20:48.986Z,6.10
2019-05-25T14:23:19.203Z,6.08
2019-05-25T14:25:49.313Z,5.92
2019-05-25T14:28:19.476Z,6.22
2019-05-25T14:30:49.702Z,6.72
2019-05-25T14:33:19.820Z,5.65
2019-05-25T14:35:50.068Z,5.85
2019-05-25T14:38:20.169Z,5.53
2019-05-25T14:40:50.353Z,5.28
2019-05-25T14:43:20.570Z,5.90
2019-05-25T14:45:53.336Z,5.80
2019-05-25T14:48:22.889Z,9.03
2019-05-25T14:50:53.289Z,5.87
2019-05-25T14:53:23.582Z,5.87
2019-05-25T14:55:53.847Z,6.20
2019-05-25T14:58:24.179Z,6.58
2019-05-25T15:00:54.349Z,6.78
2019-05-25T15:03:24.670Z,9.65
2019-05-25T15:05:54.868Z,7.05
2019-05-25T15:08:24.962Z,7.75
2019-05-25T15:10:55.283Z,8.13
2019-05-25T15:13:25.643Z,11.80
2019-05-25T15:15:55.926Z,12.43
2019-05-25T15:18:26.214Z,7.97
2019-05-25T15:20:56.578Z,8.23
2019-05-25T15:23:26.914Z,5.92
2019-05-25T15:25:57.221Z,7.30
2019-05-25T15:28:27.537Z,6.15
2019-05-25T15:30:58.697Z,9.33
2019-05-25T15:33:29.040Z,8.58
2019-05-25T15:35:59.447Z,7.22
2019-05-25T15:38:29.733Z,4.65
2019-05-25T15:40:59.953Z,5.75
2019-05-25T15:43:30.201Z,7.37
2019-05-25T15:46:00.326Z,7.97
2019-05-25T15:48:30.859Z,7.83
2019-05-25T15:51:01.145Z,5.50
2019-05-25T15:53:31.448Z,9.58
2019-05-25T15:56:01.733Z,4.78
2019-05-25T15:58:32.028Z,5.28
2019-05-25T16:01:02.277Z,5.90
2019-05-25T16:03:32.541Z,5.10
2019-05-25T16:06:03.027Z,5.83
2019-05-25T16:08:33.549Z,6.83
2019-05-25T16:11:03.806Z,8.05
2019-05-25T16:13:34.066Z,7.37
2019-05-25T16:16:04.324Z,6.53
2019-05-25T16:18:35.673Z,5.70
2019-05-25T16:21:05.969Z,6.85
2019-05-25T16:23:36.150Z,8.03
2019-05-25T16:26:06.444Z,6.33
2019-05-25T16:28:36.798Z,5.53
2019-05-25T16:31:07.301Z,5.97
2019-05-25T16:33:37.595Z,6.33
2019-05-25T16:36:07.853Z,4.83
2019-05-25T16:38:38.133Z,9.18
2019-05-25T16:41:08.493Z,5.62
2019-05-25T16:43:38.924Z,6.10
2019-05-25T16:46:09.250Z,5.55
2019-05-25T16:48:39.530Z,6.12
2019-05-25T16:51:09.793Z,7.42
2019-05-25T16:53:40.115Z,8.05
2019-05-25T16:56:10.438Z,5.87
2019-05-25T16:58:40.689Z,6.03
2019-05-25T17:01:11.010Z,6.58
2019-05-25T17:03:41.403Z,4.75
2019-05-25T17:06:11.585Z,4.78
2019-05-25T17:08:41.822Z,6.75
2019-05-25T17:11:12.098Z,7.05
2019-05-25T17:13:42.351Z,7.12
2019-05-25T17:16:12.680Z,11.25
2019-05-25T17:18:42.952Z,8.80
2019-05-25T17:21:13.143Z,10.03
2019-05-25T17:23:43.430Z,11.08
2019-05-25T17:26:13.656Z,10.28
2019-05-25T17:28:44.088Z,10.70
2019-05-25T17:31:14.400Z,15.70
2019-05-25T17:33:46.489Z,8.30
2019-05-25T17:36:16.711Z,10.20
2019-05-25T17:38:47.005Z,10.20
2019-05-25T17:41:17.326Z,8.05
2019-05-25T17:43:47.612Z,9.03
2019-05-25T17:46:18.180Z,8.35
2019-05-25T17:48:48.514Z,9.00
2019-05-25T17:51:18.776Z,9.15
2019-05-25T17:53:48.974Z,9.83
2019-05-25T17:56:19.366Z,8.00
2019-05-25T17:58:49.654Z,7.47
2019-05-25T18:01:20.405Z,9.83
2019-05-25T18:04:05.444Z,8.33
2019-05-25T18:06:22.674Z,8.23
2019-05-25T18:08:53.006Z,8.13
2019-05-25T18:11:23.254Z,7.25
2019-05-25T18:13:53.500Z,8.85
2019-05-25T18:16:23.754Z,8.45
2019-05-25T18:18:54.021Z,8.35
2019-05-25T18:21:24.346Z,8.63
2019-05-25T18:23:54.579Z,13.93
2019-05-25T18:26:24.868Z,48.33
2019-05-25T18:28:55.183Z,47.17
2019-05-25T18:31:25.491Z,30.15
2019-05-25T18:33:55.983Z,53.98
2019-05-25T18:36:26.373Z,40.38
2019-05-25T18:38:56.820Z,42.90
2019-05-25T18:41:27.069Z,47.73
2019-05-25T18:43:57.347Z,45.65
2019-05-25T18:46:27.684Z,71.42
2019-05-25T18:48:58.047Z,66.07
2019-05-25T18:51:28.267Z,60.95
2019-05-25T18:53:58.501Z,50.63
2019-05-25T18:56:28.713Z,37.42
2019-05-25T18:58:59.149Z,34.73
2019-05-25T19:01:29.508Z,35.70
2019-05-25T19:03:59.706Z,32.78
2019-05-25T19:06:30.445Z,28.17
2019-05-25T19:09:00.829Z,25.23
2019-05-25T19:11:35.545Z,20.00
2019-05-25T19:14:03.458Z,21.05
2019-05-25T19:16:33.793Z,14.23
2019-05-25T19:19:04.143Z,20.88
2019-05-25T19:21:35.355Z,15.72
2019-05-25T19:24:05.749Z,20.62
2019-05-25T19:26:46.207Z,15.47
2019-05-25T19:29:16.455Z,19.23
2019-05-25T19:31:46.853Z,19.77
2019-05-25T19:34:17.221Z,19.82
2019-05-25T19:36:47.505Z,19.23
2019-05-25T19:39:17.893Z,18.32
2019-05-25T19:41:48.276Z,28.12
2019-05-25T19:44:19.506Z,23.47
2019-05-25T19:46:50.030Z,28.85
2019-05-25T19:49:20.284Z,30.08
2019-05-25T19:51:50.690Z,47.03
2019-05-25T19:54:21.069Z,47.90
2019-05-25T19:56:51.396Z,33.45
2019-05-25T19:59:21.673Z,24.80
2019-05-25T20:01:51.889Z,24.35
2019-05-25T20:04:22.224Z,27.73
2019-05-25T20:06:52.496Z,26.35
2019-05-25T20:09:22.660Z,27.05
2019-05-25T20:11:52.978Z,26.48
2019-05-25T20:14:23.199Z,26.52
2019-05-25T20:16:53.562Z,21.87
2019-05-25T20:19:23.839Z,27.05
2019-05-25T20:21:55.129Z,28.47
2019-05-25T20:24:25.437Z,22.95
2019-05-25T20:26:55.719Z,25.48
2019-05-25T20:29:26.068Z,30.40
2019-05-25T20:31:56.447Z,28.35
2019-05-25T20:34:26.688Z,29.00
2019-05-25T20:36:56.837Z,26.75
2019-05-25T20:39:27.254Z,25.60
2019-05-25T20:41:57.519Z,23.05
2019-05-25T20:44:27.731Z,20.62
2019-05-25T20:46:58.031Z,21.40
2019-05-25T20:49:28.306Z,31.07
2019-05-25T20:51:58.557Z,28.67
2019-05-25T20:54:29.807Z,35.68
2019-05-25T20:57:01.085Z,41.05
2019-05-25T20:59:31.411Z,49.60
2019-05-25T21:02:01.767Z,25.82
2019-05-25T21:04:32.132Z,47.08
2019-05-25T21:07:02.552Z,54.55
2019-05-25T21:09:32.869Z,30.77
2019-05-25T21:12:03.169Z,45.60
2019-05-25T21:14:33.476Z,48.02
2019-05-25T21:17:03.838Z,55.43
2019-05-25T21:19:34.122Z,37.55
2019-05-25T21:22:04.383Z,36.45
2019-05-25T21:24:34.607Z,38.63
2019-05-25T21:27:05.023Z,41.28
2019-05-25T21:29:35.358Z,38.73
2019-05-25T21:32:06.613Z,47.85
2019-05-25T21:34:36.881Z,39.90
2019-05-25T21:37:07.141Z,33.40
2019-05-25T21:39:37.534Z,32.80
2019-05-25T21:42:07.855Z,34.25
2019-05-25T21:44:38.112Z,32.93
2019-05-25T21:47:08.396Z,33.20
2019-05-25T21:49:38.656Z,30.40
2019-05-25T21:52:08.935Z,30.88
2019-05-25T21:54:39.204Z,33.38
2019-05-25T21:57:09.453Z,30.65
2019-05-25T21:59:39.713Z,31.27
2019-05-25T22:02:13.779Z,35.48
2019-05-25T22:04:44.052Z,30.40
2019-05-25T22:07:14.404Z,34.23
2019-05-25T22:09:44.779Z,39.25
2019-05-25T22:12:15.093Z,35.20
2019-05-25T22:14:45.365Z,33.92
2019-05-25T22:17:15.591Z,35.33
2019-05-25T22:19:45.936Z,35.15
2019-05-25T22:22:16.187Z,34.08
2019-05-25T22:24:46.567Z,34.25
2019-05-25T22:27:16.814Z,31.82
2019-05-25T22:29:47.054Z,32.98
2019-05-25T22:32:17.314Z,35.43
2019-05-25T22:34:47.712Z,37.03
2019-05-25T22:37:17.922Z,32.65
2019-05-25T22:39:48.392Z,33.80
2019-05-25T22:42:18.675Z,36.10
2019-05-25T22:44:48.965Z,31.23
2019-05-25T22:47:19.274Z,32.63
2019-05-25T22:49:49.719Z,30.30
2019-05-25T22:52:19.969Z,31.40
2019-05-25T22:54:50.239Z,32.50
2019-05-25T22:57:20.444Z,30.25
2019-05-25T22:59:50.775Z,32.58
2019-05-25T23:02:21.164Z,27.73
2019-05-25T23:04:51.375Z,30.00
2019-05-25T23:07:21.746Z,29.77
2019-05-25T23:09:51.953Z,31.35
2019-05-25T23:12:22.283Z,31.23
2019-05-25T23:14:53.564Z,29.05
2019-05-25T23:17:23.954Z,27.20
2019-05-25T23:19:54.277Z,27.42
2019-05-25T23:22:24.703Z,29.50
2019-05-25T23:24:54.968Z,25.77
2019-05-25T23:27:25.309Z,25.72
2019-05-25T23:29:55.528Z,26.57
2019-05-25T23:32:25.803Z,28.38
2019-05-25T23:34:56.079Z,27.00
2019-05-25T23:37:26.331Z,28.00
2019-05-25T23:39:56.879Z,25.30
2019-05-25T23:42:27.190Z,26.27
2019-05-25T23:44:57.421Z,26.33
2019-05-25T23:47:27.660Z,24.67
2019-05-25T23:49:59.745Z,24.50
2019-05-25T23:52:29.912Z,24.02
2019-05-25T23:55:00.209Z,25.00
2019-05-25T23:57:30.568Z,22.50
